Warning: Javascript must be enabled to use all the features on this page!


Page Loading - Please Wait...

Click to hideNews Bulletins

Peak Streamflow for the Nation

USGS 11289650 TUOLUMNE R BL LAGRANGE DAM NR LAGRANGE CA

Stanislaus County, California
Hydrologic Unit Code 18040009
Latitude  37°39'59", Longitude 120°26'28" NAD27
Drainage area 1,538  square miles
Output formats
Table
Graph
Tab-separated file
peakfq (watstore) format
Reselect output format
Water
Year
Date Gage
Height
(feet)
Stream-
flow
(cfs)
1971 1971-01-02 8.73 2,7206
1972 1971-10-15 8.63 2,5706
1973 1972-10-02 8.82 2,6306
1974 1974-01-03 9.55 3,2606
1975 1975-01-30 10.82 4,8006
1976 1975-12-22 10.55 4,4806
1977 1976-10-06 5.29 6986
1978 1978-05-04 10.59 4,6006
1979 1979-02-21 10.86 4,8506
1980 1980-03-18 12.98 7,3306
1981 1981-01-05 10.87 4,8606
1982 1982-04-18 13.96 8,2906
1983 1983-04-24 15.09 10,4006
1984 1984-01-04 13.30 8,0606
1985 1984-12-03 10.73 4,8606
1986 1986-04-14 12.49 6,9606
1987 1986-12-08 10.61 4,7306
1988 1988-01-14 4.97 6906
1989 1989-04-28 5.87 1,0506
1990 1989-10-15 5.46 8866
1991 1991-04-29 7.17 1,7806
1992 1992-05-02 6.71 1,4906
1993 1993-08-27 8.40 2,6006
1994 1993-10-05 9.32 3,3906
1995 1995-05-26 14.20 9,2606
1996 1996-05-17 12.43 6,8806
1997 1997-01-03 28.43 58,9006
1998 1998-02-25 13.19 8,3606
1999 1999-02-11 12.97 8,0106
2000 2000-03-06 12.31 7,0206
2001 2001-02-22 9.66 3,7806
2002 2002-04-29 6.76 1,3606
2003 2003-04-17 7.37 1,7606
2004 2004-03-17 9.23 3,1006
2005 2005-04-01 13.55 8,4106
2006 2006-04-27 13.99 9,0206
2007 2007-04-22 6.11 8896
2008 2008-04-21 7.03 1,3806
2009 2009-05-09 6.29 9746
2010 2010-06-13 11.95 6,1506
2011 2011-04-08 13.54 8,6206
2012 2012-05-09 8.13 2,2306
2013 2013-05-02 6.612 1,2306
2014 2014-04-16 6.99 1,4706
2015 2015-04-05 7.07 1,5206
2016 2016-04-16 8.94 2,9306
2017 2017-02-20 18.54 17,0006
2018 2018-03-25 10.92 4,8406
2019 2019-05-16 12.92 7,4606
?
  Peak Gage-Height Qualification Codes.
?
  Peak Streamflow Qualification Codes.